sensor_id;sensor_type;location;lat;lon;timestamp;temperature;humidity
27573;DHT22;15009;53.082;8.768;2022-08-25T00:00:52;23.90;87.10
27573;DHT22;15009;53.082;8.768;2022-08-25T00:03:53;23.90;87.40
27573;DHT22;15009;53.082;8.768;2022-08-25T00:06:54;23.90;88.00
27573;DHT22;15009;53.082;8.768;2022-08-25T00:09:55;23.90;88.60
27573;DHT22;15009;53.082;8.768;2022-08-25T00:12:55;23.80;89.20
27573;DHT22;15009;53.082;8.768;2022-08-25T00:15:56;23.80;90.00
27573;DHT22;15009;53.082;8.768;2022-08-25T00:19:03;23.80;90.10
27573;DHT22;15009;53.082;8.768;2022-08-25T00:22:05;23.80;90.50
27573;DHT22;15009;53.082;8.768;2022-08-25T00:25:07;23.80;91.10
27573;DHT22;15009;53.082;8.768;2022-08-25T00:28:08;23.70;91.40
27573;DHT22;15009;53.082;8.768;2022-08-25T00:31:18;23.60;91.80
27573;DHT22;15009;53.082;8.768;2022-08-25T00:34:22;23.50;92.90
27573;DHT22;15009;53.082;8.768;2022-08-25T00:37:23;23.50;94.20
27573;DHT22;15009;53.082;8.768;2022-08-25T00:40:26;23.40;94.50
27573;DHT22;15009;53.082;8.768;2022-08-25T00:43:27;23.30;95.70
27573;DHT22;15009;53.082;8.768;2022-08-25T00:46:53;23.20;96.40
27573;DHT22;15009;53.082;8.768;2022-08-25T00:49:57;23.00;97.30
27573;DHT22;15009;53.082;8.768;2022-08-25T00:53:00;23.00;98.70
27573;DHT22;15009;53.082;8.768;2022-08-25T00:56:01;22.90;99.90
27573;DHT22;15009;53.082;8.768;2022-08-25T00:59:03;22.80;99.90
27573;DHT22;15009;53.082;8.768;2022-08-25T01:02:06;22.80;99.90
27573;DHT22;15009;53.082;8.768;2022-08-25T01:05:07;22.60;99.90
27573;DHT22;15009;53.082;8.768;2022-08-25T01:08:09;22.60;99.90
27573;DHT22;15009;53.082;8.768;2022-08-25T01:11:10;22.50;99.90
27573;DHT22;15009;53.082;8.768;2022-08-25T01:14:15;22.50;99.90
27573;DHT22;15009;53.082;8.768;2022-08-25T01:17:16;22.50;99.90
27573;DHT22;15009;53.082;8.768;2022-08-25T01:20:20;22.40;99.90
27573;DHT22;15009;53.082;8.768;2022-08-25T01:23:22;22.40;99.90
27573;DHT22;15009;53.082;8.768;2022-08-25T01:26:28;22.40;99.90
27573;DHT22;15009;53.082;8.768;2022-08-25T01:29:30;22.40;99.90
27573;DHT22;15009;53.082;8.768;2022-08-25T01:32:33;22.30;99.90
27573;DHT22;15009;53.082;8.768;2022-08-25T01:35:34;22.30;99.90
27573;DHT22;15009;53.082;8.768;2022-08-25T01:38:35;22.30;99.90
27573;DHT22;15009;53.082;8.768;2022-08-25T01:45:02;22.20;99.90
27573;DHT22;15009;53.082;8.768;2022-08-25T01:48:03;22.10;99.90
27573;DHT22;15009;53.082;8.768;2022-08-25T01:51:07;22.20;99.90
27573;DHT22;15009;53.082;8.768;2022-08-25T01:54:08;22.00;99.90
27573;DHT22;15009;53.082;8.768;2022-08-25T01:57:09;22.00;99.90
27573;DHT22;15009;53.082;8.768;2022-08-25T02:00:10;21.90;99.90
27573;DHT22;15009;53.082;8.768;2022-08-25T02:03:13;21.90;99.90
27573;DHT22;15009;53.082;8.768;2022-08-25T02:06:17;21.90;99.90
27573;DHT22;15009;53.082;8.768;2022-08-25T02:09:18;21.80;99.90
27573;DHT22;15009;53.082;8.768;2022-08-25T02:12:18;21.80;99.90
27573;DHT22;15009;53.082;8.768;2022-08-25T02:15:19;21.80;99.90
27573;DHT22;15009;53.082;8.768;2022-08-25T02:18:20;21.80;99.90
27573;DHT22;15009;53.082;8.768;2022-08-25T02:21:21;21.80;99.90
27573;DHT22;15009;53.082;8.768;2022-08-25T02:24:22;21.70;99.90
27573;DHT22;15009;53.082;8.768;2022-08-25T02:27:22;21.70;99.90
27573;DHT22;15009;53.082;8.768;2022-08-25T02:30:23;21.50;99.90
27573;DHT22;15009;53.082;8.768;2022-08-25T02:33:24;21.50;99.90
27573;DHT22;15009;53.082;8.768;2022-08-25T02:36:25;21.50;99.90
27573;DHT22;15009;53.082;8.768;2022-08-25T02:39:26;21.50;99.90
27573;DHT22;15009;53.082;8.768;2022-08-25T02:42:27;21.50;99.90
27573;DHT22;15009;53.082;8.768;2022-08-25T02:45:28;21.50;99.90
27573;DHT22;15009;53.082;8.768;2022-08-25T02:48:28;21.40;99.90
27573;DHT22;15009;53.082;8.768;2022-08-25T02:51:29;21.50;99.90
27573;DHT22;15009;53.082;8.768;2022-08-25T02:54:31;21.40;99.90
27573;DHT22;15009;53.082;8.768;2022-08-25T02:57:31;21.40;99.90
27573;DHT22;15009;53.082;8.768;2022-08-25T03:00:32;21.40;99.90
27573;DHT22;15009;53.082;8.768;2022-08-25T03:03:33;21.40;99.90
27573;DHT22;15009;53.082;8.768;2022-08-25T03:06:33;21.40;99.90
27573;DHT22;15009;53.082;8.768;2022-08-25T03:09:34;21.30;99.90
27573;DHT22;15009;53.082;8.768;2022-08-25T03:12:34;21.30;99.90
27573;DHT22;15009;53.082;8.768;2022-08-25T03:15:35;21.30;99.90
27573;DHT22;15009;53.082;8.768;2022-08-25T03:18:39;21.30;99.90
27573;DHT22;15009;53.082;8.768;2022-08-25T03:21:39;21.30;99.90
27573;DHT22;15009;53.082;8.768;2022-08-25T03:24:40;21.20;99.90
27573;DHT22;15009;53.082;8.768;2022-08-25T03:27:41;21.20;99.90
27573;DHT22;15009;53.082;8.768;2022-08-25T03:30:41;21.10;99.90
27573;DHT22;15009;53.082;8.768;2022-08-25T03:33:42;21.10;99.90
27573;DHT22;15009;53.082;8.768;2022-08-25T03:36:44;21.00;99.90
27573;DHT22;15009;53.082;8.768;2022-08-25T03:39:45;20.90;99.90
27573;DHT22;15009;53.082;8.768;2022-08-25T03:42:46;20.90;99.90
27573;DHT22;15009;53.082;8.768;2022-08-25T03:45:47;20.90;99.90
27573;DHT22;15009;53.082;8.768;2022-08-25T03:48:48;20.90;99.90
27573;DHT22;15009;53.082;8.768;2022-08-25T03:51:50;20.90;99.90
27573;DHT22;15009;53.082;8.768;2022-08-25T03:54:51;20.90;99.90
27573;DHT22;15009;53.082;8.768;2022-08-25T03:57:54;20.80;99.90
27573;DHT22;15009;53.082;8.768;2022-08-25T04:00:55;20.80;99.90
27573;DHT22;15009;53.082;8.768;2022-08-25T04:03:59;20.80;99.90
27573;DHT22;15009;53.082;8.768;2022-08-25T04:07:00;20.70;99.90
27573;DHT22;15009;53.082;8.768;2022-08-25T04:10:01;20.70;99.90
27573;DHT22;15009;53.082;8.768;2022-08-25T04:13:02;20.70;99.90
27573;DHT22;15009;53.082;8.768;2022-08-25T04:16:26;20.70;99.90
27573;DHT22;15009;53.082;8.768;2022-08-25T04:19:27;20.80;99.90
27573;DHT22;15009;53.082;8.768;2022-08-25T04:22:27;20.80;99.90
27573;DHT22;15009;53.082;8.768;2022-08-25T04:25:28;20.80;99.90
27573;DHT22;15009;53.082;8.768;2022-08-25T04:28:29;20.80;99.90
27573;DHT22;15009;53.082;8.768;2022-08-25T04:31:31;20.80;99.90
27573;DHT22;15009;53.082;8.768;2022-08-25T04:34:31;20.70;99.90
27573;DHT22;15009;53.082;8.768;2022-08-25T04:37:32;20.80;99.90
27573;DHT22;15009;53.082;8.768;2022-08-25T04:40:33;20.90;99.90
27573;DHT22;15009;53.082;8.768;2022-08-25T04:43:34;20.80;99.90
27573;DHT22;15009;53.082;8.768;2022-08-25T04:46:35;20.80;99.90
27573;DHT22;15009;53.082;8.768;2022-08-25T04:49:37;20.90;99.90
27573;DHT22;15009;53.082;8.768;2022-08-25T04:52:37;20.90;99.90
27573;DHT22;15009;53.082;8.768;2022-08-25T04:55:43;20.90;99.90
27573;DHT22;15009;53.082;8.768;2022-08-25T04:58:45;20.90;99.90
27573;DHT22;15009;53.082;8.768;2022-08-25T05:01:46;21.00;99.90
27573;DHT22;15009;53.082;8.768;2022-08-25T05:04:47;21.00;99.90
27573;DHT22;15009;53.082;8.768;2022-08-25T05:07:48;20.90;99.90
27573;DHT22;15009;53.082;8.768;2022-08-25T05:10:49;20.90;99.90
27573;DHT22;15009;53.082;8.768;2022-08-25T05:13:51;20.90;99.90
27573;DHT22;15009;53.082;8.768;2022-08-25T05:16:53;21.00;99.90
27573;DHT22;15009;53.082;8.768;2022-08-25T05:19:54;21.20;99.90
27573;DHT22;15009;53.082;8.768;2022-08-25T05:22:55;21.30;99.90
27573;DHT22;15009;53.082;8.768;2022-08-25T05:26:01;21.40;99.90
27573;DHT22;15009;53.082;8.768;2022-08-25T05:29:05;21.50;99.90
27573;DHT22;15009;53.082;8.768;2022-08-25T05:32:05;21.50;99.90
27573;DHT22;15009;53.082;8.768;2022-08-25T05:35:06;21.60;99.90
27573;DHT22;15009;53.082;8.768;2022-08-25T05:38:08;21.70;99.90
27573;DHT22;15009;53.082;8.768;2022-08-25T05:41:12;21.80;99.90
27573;DHT22;15009;53.082;8.768;2022-08-25T05:44:15;22.00;99.90
27573;DHT22;15009;53.082;8.768;2022-08-25T05:47:16;22.10;99.90
27573;DHT22;15009;53.082;8.768;2022-08-25T05:50:17;22.20;99.90
27573;DHT22;15009;53.082;8.768;2022-08-25T05:53:19;22.30;99.90
27573;DHT22;15009;53.082;8.768;2022-08-25T05:56:19;22.40;99.90
27573;DHT22;15009;53.082;8.768;2022-08-25T05:59:20;22.50;99.90
27573;DHT22;15009;53.082;8.768;2022-08-25T06:02:21;22.60;99.90
27573;DHT22;15009;53.082;8.768;2022-08-25T06:05:40;22.80;99.90
27573;DHT22;15009;53.082;8.768;2022-08-25T06:08:44;22.80;99.90
27573;DHT22;15009;53.082;8.768;2022-08-25T06:11:46;22.70;99.90
27573;DHT22;15009;53.082;8.768;2022-08-25T06:14:47;22.70;99.90
27573;DHT22;15009;53.082;8.768;2022-08-25T06:17:50;22.60;99.90
27573;DHT22;15009;53.082;8.768;2022-08-25T06:20:51;22.60;99.90
27573;DHT22;15009;53.082;8.768;2022-08-25T06:23:51;22.70;99.90
27573;DHT22;15009;53.082;8.768;2022-08-25T06:26:52;23.10;99.90
27573;DHT22;15009;53.082;8.768;2022-08-25T06:29:53;23.50;99.90
27573;DHT22;15009;53.082;8.768;2022-08-25T06:32:54;23.40;99.90
27573;DHT22;15009;53.082;8.768;2022-08-25T06:35:55;23.30;99.90
27573;DHT22;15009;53.082;8.768;2022-08-25T06:38:56;23.50;99.90
27573;DHT22;15009;53.082;8.768;2022-08-25T06:41:57;23.60;99.90
27573;DHT22;15009;53.082;8.768;2022-08-25T06:44:57;23.60;99.90
27573;DHT22;15009;53.082;8.768;2022-08-25T06:47:58;23.90;99.90
27573;DHT22;15009;53.082;8.768;2022-08-25T06:50:59;24.20;99.90
27573;DHT22;15009;53.082;8.768;2022-08-25T06:53:59;24.90;99.90
27573;DHT22;15009;53.082;8.768;2022-08-25T06:57:00;26.10;99.90
27573;DHT22;15009;53.082;8.768;2022-08-25T07:00:04;28.60;99.90
27573;DHT22;15009;53.082;8.768;2022-08-25T07:03:05;32.50;99.90
27573;DHT22;15009;53.082;8.768;2022-08-25T07:06:06;34.80;96.70
27573;DHT22;15009;53.082;8.768;2022-08-25T07:09:08;36.00;90.80
27573;DHT22;15009;53.082;8.768;2022-08-25T07:12:09;37.00;85.40
27573;DHT22;15009;53.082;8.768;2022-08-25T07:15:10;38.40;77.10
27573;DHT22;15009;53.082;8.768;2022-08-25T07:18:11;38.60;73.00
27573;DHT22;15009;53.082;8.768;2022-08-25T07:21:12;38.30;70.80
27573;DHT22;15009;53.082;8.768;2022-08-25T07:24:13;38.00;70.50
27573;DHT22;15009;53.082;8.768;2022-08-25T07:27:14;36.40;73.40
27573;DHT22;15009;53.082;8.768;2022-08-25T07:30:16;35.60;73.40
27573;DHT22;15009;53.082;8.768;2022-08-25T07:33:17;35.90;74.30
27573;DHT22;15009;53.082;8.768;2022-08-25T07:36:17;35.50;75.00
27573;DHT22;15009;53.082;8.768;2022-08-25T07:39:18;34.90;75.50
27573;DHT22;15009;53.082;8.768;2022-08-25T07:42:18;34.00;78.80
27573;DHT22;15009;53.082;8.768;2022-08-25T07:45:20;33.40;81.00
27573;DHT22;15009;53.082;8.768;2022-08-25T07:48:24;32.70;83.20
27573;DHT22;15009;53.082;8.768;2022-08-25T07:51:25;32.50;84.70
27573;DHT22;15009;53.082;8.768;2022-08-25T07:54:25;32.40;84.90
27573;DHT22;15009;53.082;8.768;2022-08-25T07:57:27;32.00;87.40
27573;DHT22;15009;53.082;8.768;2022-08-25T08:00:29;32.20;86.90
27573;DHT22;15009;53.082;8.768;2022-08-25T08:03:31;32.40;87.50
27573;DHT22;15009;53.082;8.768;2022-08-25T08:06:33;32.70;87.10
27573;DHT22;15009;53.082;8.768;2022-08-25T08:09:35;32.90;86.60
27573;DHT22;15009;53.082;8.768;2022-08-25T08:12:36;32.90;87.20
27573;DHT22;15009;53.082;8.768;2022-08-25T08:15:41;33.00;87.90
27573;DHT22;15009;53.082;8.768;2022-08-25T08:18:43;33.80;84.30
27573;DHT22;15009;53.082;8.768;2022-08-25T08:21:44;33.80;83.30
27573;DHT22;15009;53.082;8.768;2022-08-25T08:24:45;33.70;83.90
27573;DHT22;15009;53.082;8.768;2022-08-25T08:27:46;34.60;80.90
27573;DHT22;15009;53.082;8.768;2022-08-25T08:30:47;36.00;78.70
27573;DHT22;15009;53.082;8.768;2022-08-25T08:33:49;36.10;76.80
27573;DHT22;15009;53.082;8.768;2022-08-25T08:36:50;35.60;77.10
27573;DHT22;15009;53.082;8.768;2022-08-25T08:39:51;36.90;74.90
27573;DHT22;15009;53.082;8.768;2022-08-25T08:46:03;37.70;72.20
27573;DHT22;15009;53.082;8.768;2022-08-25T08:49:10;38.20;70.50
27573;DHT22;15009;53.082;8.768;2022-08-25T08:52:15;37.80;70.00
27573;DHT22;15009;53.082;8.768;2022-08-25T08:55:25;38.60;68.90
27573;DHT22;15009;53.082;8.768;2022-08-25T09:01:51;38.70;67.50
27573;DHT22;15009;53.082;8.768;2022-08-25T09:04:59;37.40;70.10
27573;DHT22;15009;53.082;8.768;2022-08-25T09:08:10;38.30;67.40
27573;DHT22;15009;53.082;8.768;2022-08-25T09:18:09;37.60;67.50
27573;DHT22;15009;53.082;8.768;2022-08-25T09:21:33;36.70;68.90
27573;DHT22;15009;53.082;8.768;2022-08-25T09:31:26;34.70;74.60
27573;DHT22;15009;53.082;8.768;2022-08-25T09:34:32;34.40;74.60
27573;DHT22;15009;53.082;8.768;2022-08-25T09:37:33;33.70;75.20
27573;DHT22;15009;53.082;8.768;2022-08-25T09:40:43;33.10;77.40
27573;DHT22;15009;53.082;8.768;2022-08-25T09:43:52;33.00;77.90
27573;DHT22;15009;53.082;8.768;2022-08-25T09:47:00;32.60;78.30
27573;DHT22;15009;53.082;8.768;2022-08-25T09:50:02;32.80;78.70
27573;DHT22;15009;53.082;8.768;2022-08-25T09:53:12;32.90;76.90
27573;DHT22;15009;53.082;8.768;2022-08-25T09:56:14;32.90;76.00
27573;DHT22;15009;53.082;8.768;2022-08-25T09:59:21;33.30;75.70
27573;DHT22;15009;53.082;8.768;2022-08-25T10:02:25;33.70;73.50
27573;DHT22;15009;53.082;8.768;2022-08-25T10:05:26;33.30;74.00
27573;DHT22;15009;53.082;8.768;2022-08-25T10:09:12;33.20;74.20
27573;DHT22;15009;53.082;8.768;2022-08-25T10:11:55;32.90;75.20
27573;DHT22;15009;53.082;8.768;2022-08-25T10:14:59;32.50;75.30
27573;DHT22;15009;53.082;8.768;2022-08-25T10:18:25;32.40;75.20
27573;DHT22;15009;53.082;8.768;2022-08-25T10:21:26;32.40;75.80
27573;DHT22;15009;53.082;8.768;2022-08-25T10:24:26;32.00;74.70
27573;DHT22;15009;53.082;8.768;2022-08-25T10:30:52;32.10;76.50
27573;DHT22;15009;53.082;8.768;2022-08-25T10:34:24;32.00;76.50
27573;DHT22;15009;53.082;8.768;2022-08-25T10:51:32;32.00;77.30
27573;DHT22;15009;53.082;8.768;2022-08-25T11:05:04;32.40;77.10
27573;DHT22;15009;53.082;8.768;2022-08-25T11:08:30;32.20;75.60
27573;DHT22;15009;53.082;8.768;2022-08-25T11:11:51;31.90;75.70
27573;DHT22;15009;53.082;8.768;2022-08-25T11:14:59;31.50;77.20
27573;DHT22;15009;53.082;8.768;2022-08-25T11:18:10;31.30;78.30
27573;DHT22;15009;53.082;8.768;2022-08-25T11:21:16;31.60;77.80
27573;DHT22;15009;53.082;8.768;2022-08-25T11:24:32;32.10;76.50
27573;DHT22;15009;53.082;8.768;2022-08-25T11:30:59;31.80;76.50
27573;DHT22;15009;53.082;8.768;2022-08-25T11:34:00;31.60;76.20
27573;DHT22;15009;53.082;8.768;2022-08-25T11:37:20;31.60;76.60
27573;DHT22;15009;53.082;8.768;2022-08-25T11:44:28;31.70;75.30
27573;DHT22;15009;53.082;8.768;2022-08-25T11:47:49;31.40;75.70
27573;DHT22;15009;53.082;8.768;2022-08-25T11:51:01;30.70;77.50
27573;DHT22;15009;53.082;8.768;2022-08-25T11:54:22;30.50;78.20
27573;DHT22;15009;53.082;8.768;2022-08-25T11:57:27;30.70;78.90
27573;DHT22;15009;53.082;8.768;2022-08-25T12:00:42;30.30;80.60
27573;DHT22;15009;53.082;8.768;2022-08-25T12:07:20;30.70;79.80
27573;DHT22;15009;53.082;8.768;2022-08-25T12:10:23;30.90;78.10
27573;DHT22;15009;53.082;8.768;2022-08-25T12:19:53;31.30;76.30
27573;DHT22;15009;53.082;8.768;2022-08-25T12:22:56;31.30;76.60
27573;DHT22;15009;53.082;8.768;2022-08-25T12:26:38;31.80;76.90
27573;DHT22;15009;53.082;8.768;2022-08-25T12:30:32;32.00;74.10
27573;DHT22;15009;53.082;8.768;2022-08-25T12:36:27;31.70;75.70
27573;DHT22;15009;53.082;8.768;2022-08-25T12:39:36;31.60;75.50
27573;DHT22;15009;53.082;8.768;2022-08-25T12:42:42;31.70;75.90
27573;DHT22;15009;53.082;8.768;2022-08-25T12:45:49;31.40;76.40
27573;DHT22;15009;53.082;8.768;2022-08-25T12:48:57;31.10;77.90
27573;DHT22;15009;53.082;8.768;2022-08-25T12:52:24;30.90;78.40
27573;DHT22;15009;53.082;8.768;2022-08-25T12:55:26;30.80;78.50
27573;DHT22;15009;53.082;8.768;2022-08-25T12:59:19;30.80;78.30
27573;DHT22;15009;53.082;8.768;2022-08-25T13:14:57;30.90;78.40
27573;DHT22;15009;53.082;8.768;2022-08-25T13:18:14;30.50;79.50
27573;DHT22;15009;53.082;8.768;2022-08-25T13:21:23;30.30;79.70
27573;DHT22;15009;53.082;8.768;2022-08-25T13:24:32;30.30;80.20
27573;DHT22;15009;53.082;8.768;2022-08-25T13:27:35;30.40;79.70
27573;DHT22;15009;53.082;8.768;2022-08-25T13:30:36;30.50;80.20
27573;DHT22;15009;53.082;8.768;2022-08-25T13:33:38;30.60;80.30
27573;DHT22;15009;53.082;8.768;2022-08-25T13:36:43;30.50;80.60
27573;DHT22;15009;53.082;8.768;2022-08-25T13:43:15;30.60;80.70
27573;DHT22;15009;53.082;8.768;2022-08-25T13:46:20;30.50;81.50
27573;DHT22;15009;53.082;8.768;2022-08-25T13:49:25;30.50;81.70
27573;DHT22;15009;53.082;8.768;2022-08-25T13:52:27;30.20;82.10
27573;DHT22;15009;53.082;8.768;2022-08-25T13:58:43;30.60;82.20
27573;DHT22;15009;53.082;8.768;2022-08-25T14:01:46;31.00;81.20
27573;DHT22;15009;53.082;8.768;2022-08-25T14:04:49;31.20;80.90
27573;DHT22;15009;53.082;8.768;2022-08-25T14:07:55;31.10;80.20
27573;DHT22;15009;53.082;8.768;2022-08-25T14:11:07;31.00;79.10
27573;DHT22;15009;53.082;8.768;2022-08-25T14:14:32;31.10;78.20
27573;DHT22;15009;53.082;8.768;2022-08-25T14:17:32;31.10;77.60
27573;DHT22;15009;53.082;8.768;2022-08-25T14:20:35;30.90;78.90
27573;DHT22;15009;53.082;8.768;2022-08-25T14:23:37;30.80;80.80
27573;DHT22;15009;53.082;8.768;2022-08-25T14:26:38;30.80;81.10
27573;DHT22;15009;53.082;8.768;2022-08-25T14:29:39;31.00;79.90
27573;DHT22;15009;53.082;8.768;2022-08-25T14:32:40;30.90;79.90
27573;DHT22;15009;53.082;8.768;2022-08-25T14:35:43;30.70;80.70
27573;DHT22;15009;53.082;8.768;2022-08-25T14:38:45;30.70;81.30
27573;DHT22;15009;53.082;8.768;2022-08-25T14:41:46;30.40;82.00
27573;DHT22;15009;53.082;8.768;2022-08-25T14:44:48;30.20;82.00
27573;DHT22;15009;53.082;8.768;2022-08-25T14:47:49;30.20;82.70
27573;DHT22;15009;53.082;8.768;2022-08-25T14:50:52;30.40;82.40
27573;DHT22;15009;53.082;8.768;2022-08-25T14:53:56;30.40;82.30
27573;DHT22;15009;53.082;8.768;2022-08-25T14:56:57;30.20;82.60
27573;DHT22;15009;53.082;8.768;2022-08-25T14:59:58;30.10;82.30
27573;DHT22;15009;53.082;8.768;2022-08-25T15:02:59;30.10;83.20
27573;DHT22;15009;53.082;8.768;2022-08-25T15:06:00;30.20;83.50
27573;DHT22;15009;53.082;8.768;2022-08-25T15:09:05;30.40;83.40
27573;DHT22;15009;53.082;8.768;2022-08-25T15:12:10;30.40;83.00
27573;DHT22;15009;53.082;8.768;2022-08-25T15:15:11;30.30;83.60
27573;DHT22;15009;53.082;8.768;2022-08-25T15:18:11;30.20;83.80
27573;DHT22;15009;53.082;8.768;2022-08-25T15:21:12;30.20;84.90
27573;DHT22;15009;53.082;8.768;2022-08-25T15:24:14;30.10;84.20
27573;DHT22;15009;53.082;8.768;2022-08-25T15:27:17;29.90;84.90
27573;DHT22;15009;53.082;8.768;2022-08-25T15:30:18;29.70;84.80
27573;DHT22;15009;53.082;8.768;2022-08-25T15:33:18;29.40;85.50
27573;DHT22;15009;53.082;8.768;2022-08-25T15:36:23;29.40;85.90
27573;DHT22;15009;53.082;8.768;2022-08-25T15:39:24;29.60;86.20
27573;DHT22;15009;53.082;8.768;2022-08-25T15:42:25;29.70;85.90
27573;DHT22;15009;53.082;8.768;2022-08-25T15:45:26;29.80;85.60
27573;DHT22;15009;53.082;8.768;2022-08-25T15:48:26;29.70;85.30
27573;DHT22;15009;53.082;8.768;2022-08-25T15:51:27;29.50;85.40
27573;DHT22;15009;53.082;8.768;2022-08-25T15:54:28;29.40;86.40
27573;DHT22;15009;53.082;8.768;2022-08-25T15:57:29;29.40;86.70
27573;DHT22;15009;53.082;8.768;2022-08-25T16:00:30;29.40;86.40
27573;DHT22;15009;53.082;8.768;2022-08-25T16:03:30;29.40;86.80
27573;DHT22;15009;53.082;8.768;2022-08-25T16:06:32;29.30;86.80
27573;DHT22;15009;53.082;8.768;2022-08-25T16:09:33;29.30;87.10
27573;DHT22;15009;53.082;8.768;2022-08-25T16:12:35;29.40;87.30
27573;DHT22;15009;53.082;8.768;2022-08-25T16:15:37;29.30;87.30
27573;DHT22;15009;53.082;8.768;2022-08-25T16:18:38;29.40;87.80
27573;DHT22;15009;53.082;8.768;2022-08-25T16:21:38;29.50;87.50
27573;DHT22;15009;53.082;8.768;2022-08-25T16:24:41;29.40;87.20
27573;DHT22;15009;53.082;8.768;2022-08-25T16:27:44;29.50;87.00
27573;DHT22;15009;53.082;8.768;2022-08-25T16:30:46;29.60;88.30
27573;DHT22;15009;53.082;8.768;2022-08-25T16:33:47;29.60;87.20
27573;DHT22;15009;53.082;8.768;2022-08-25T16:36:48;29.50;87.70
27573;DHT22;15009;53.082;8.768;2022-08-25T16:39:53;29.10;90.70
27573;DHT22;15009;53.082;8.768;2022-08-25T16:42:54;28.80;90.20
27573;DHT22;15009;53.082;8.768;2022-08-25T16:46:01;28.80;90.60
27573;DHT22;15009;53.082;8.768;2022-08-25T16:49:04;28.70;90.40
27573;DHT22;15009;53.082;8.768;2022-08-25T16:52:06;28.70;90.60
27573;DHT22;15009;53.082;8.768;2022-08-25T16:55:26;28.70;90.40
27573;DHT22;15009;53.082;8.768;2022-08-25T16:58:28;28.70;91.10
27573;DHT22;15009;53.082;8.768;2022-08-25T17:01:30;28.80;90.50
27573;DHT22;15009;53.082;8.768;2022-08-25T17:04:33;28.80;91.10
27573;DHT22;15009;53.082;8.768;2022-08-25T17:07:34;28.60;91.10
27573;DHT22;15009;53.082;8.768;2022-08-25T17:10:40;28.80;90.90
27573;DHT22;15009;53.082;8.768;2022-08-25T17:13:43;28.80;91.10
27573;DHT22;15009;53.082;8.768;2022-08-25T17:16:44;28.90;91.00
27573;DHT22;15009;53.082;8.768;2022-08-25T17:19:45;28.90;90.90
27573;DHT22;15009;53.082;8.768;2022-08-25T17:22:46;28.90;90.80
27573;DHT22;15009;53.082;8.768;2022-08-25T17:25:48;28.90;90.50
27573;DHT22;15009;53.082;8.768;2022-08-25T17:28:49;28.90;90.90
27573;DHT22;15009;53.082;8.768;2022-08-25T17:31:50;28.80;91.50
27573;DHT22;15009;53.082;8.768;2022-08-25T17:34:51;28.80;91.50
27573;DHT22;15009;53.082;8.768;2022-08-25T17:37:51;28.70;91.70
27573;DHT22;15009;53.082;8.768;2022-08-25T17:40:54;28.60;91.90
27573;DHT22;15009;53.082;8.768;2022-08-25T17:43:56;28.60;92.20
27573;DHT22;15009;53.082;8.768;2022-08-25T17:46:58;28.50;92.70
27573;DHT22;15009;53.082;8.768;2022-08-25T17:49:58;28.30;92.90
27573;DHT22;15009;53.082;8.768;2022-08-25T17:52:59;28.20;93.20
27573;DHT22;15009;53.082;8.768;2022-08-25T17:56:06;28.10;93.50
27573;DHT22;15009;53.082;8.768;2022-08-25T17:59:07;28.00;93.90
27573;DHT22;15009;53.082;8.768;2022-08-25T18:02:08;28.00;94.10
27573;DHT22;15009;53.082;8.768;2022-08-25T18:05:13;28.00;94.30
27573;DHT22;15009;53.082;8.768;2022-08-25T18:08:13;28.00;94.40
27573;DHT22;15009;53.082;8.768;2022-08-25T18:11:15;27.90;95.20
27573;DHT22;15009;53.082;8.768;2022-08-25T18:14:16;27.90;95.40
27573;DHT22;15009;53.082;8.768;2022-08-25T18:17:17;27.80;95.90
27573;DHT22;15009;53.082;8.768;2022-08-25T18:20:18;27.80;96.40
27573;DHT22;15009;53.082;8.768;2022-08-25T18:23:19;27.70;96.80
27573;DHT22;15009;53.082;8.768;2022-08-25T18:26:20;27.70;97.20
27573;DHT22;15009;53.082;8.768;2022-08-25T18:29:20;27.60;97.80
27573;DHT22;15009;53.082;8.768;2022-08-25T18:32:21;27.50;98.30
27573;DHT22;15009;53.082;8.768;2022-08-25T18:35:22;27.50;99.00
27573;DHT22;15009;53.082;8.768;2022-08-25T18:38:22;27.40;99.50
27573;DHT22;15009;53.082;8.768;2022-08-25T18:41:41;27.30;99.90
27573;DHT22;15009;53.082;8.768;2022-08-25T18:44:42;27.30;99.90
27573;DHT22;15009;53.082;8.768;2022-08-25T18:47:42;27.20;99.90
27573;DHT22;15009;53.082;8.768;2022-08-25T18:50:44;27.20;99.90
27573;DHT22;15009;53.082;8.768;2022-08-25T18:53:46;27.10;99.90
27573;DHT22;15009;53.082;8.768;2022-08-25T18:56:47;27.10;99.90
27573;DHT22;15009;53.082;8.768;2022-08-25T18:59:47;27.10;99.90
27573;DHT22;15009;53.082;8.768;2022-08-25T19:02:50;27.10;99.90
27573;DHT22;15009;53.082;8.768;2022-08-25T19:05:50;27.00;99.90
27573;DHT22;15009;53.082;8.768;2022-08-25T19:08:51;27.00;99.90
27573;DHT22;15009;53.082;8.768;2022-08-25T19:11:52;26.90;99.90
27573;DHT22;15009;53.082;8.768;2022-08-25T19:14:53;26.90;99.90
27573;DHT22;15009;53.082;8.768;2022-08-25T19:17:54;26.80;99.90
27573;DHT22;15009;53.082;8.768;2022-08-25T19:20:56;26.80;99.90
27573;DHT22;15009;53.082;8.768;2022-08-25T19:23:57;26.70;99.90
27573;DHT22;15009;53.082;8.768;2022-08-25T19:26:58;26.70;99.90
27573;DHT22;15009;53.082;8.768;2022-08-25T19:30:03;26.70;99.90
27573;DHT22;15009;53.082;8.768;2022-08-25T19:33:06;26.60;99.90
27573;DHT22;15009;53.082;8.768;2022-08-25T19:36:06;26.60;99.90
27573;DHT22;15009;53.082;8.768;2022-08-25T19:39:11;26.50;99.90
27573;DHT22;15009;53.082;8.768;2022-08-25T19:42:12;26.50;99.90
27573;DHT22;15009;53.082;8.768;2022-08-25T19:45:14;26.50;99.90
27573;DHT22;15009;53.082;8.768;2022-08-25T19:48:15;26.40;99.90
27573;DHT22;15009;53.082;8.768;2022-08-25T19:51:16;26.40;99.90
27573;DHT22;15009;53.082;8.768;2022-08-25T19:54:20;26.40;99.90
27573;DHT22;15009;53.082;8.768;2022-08-25T19:57:22;26.30;99.90
27573;DHT22;15009;53.082;8.768;2022-08-25T20:00:26;26.40;99.90
27573;DHT22;15009;53.082;8.768;2022-08-25T20:03:28;26.30;99.90
27573;DHT22;15009;53.082;8.768;2022-08-25T20:06:29;26.30;99.90
27573;DHT22;15009;53.082;8.768;2022-08-25T20:09:30;26.20;99.90
27573;DHT22;15009;53.082;8.768;2022-08-25T20:12:31;26.10;99.90
27573;DHT22;15009;53.082;8.768;2022-08-25T20:15:33;26.10;99.90
27573;DHT22;15009;53.082;8.768;2022-08-25T20:18:34;26.10;99.90
27573;DHT22;15009;53.082;8.768;2022-08-25T20:21:36;26.10;99.90
27573;DHT22;15009;53.082;8.768;2022-08-25T20:24:40;26.00;99.90
27573;DHT22;15009;53.082;8.768;2022-08-25T20:27:54;26.00;99.90
27573;DHT22;15009;53.082;8.768;2022-08-25T20:30:57;25.90;99.90
27573;DHT22;15009;53.082;8.768;2022-08-25T20:33:58;25.90;99.90
27573;DHT22;15009;53.082;8.768;2022-08-25T20:36:58;25.80;99.90
27573;DHT22;15009;53.082;8.768;2022-08-25T20:39:59;25.80;99.90
27573;DHT22;15009;53.082;8.768;2022-08-25T20:43:00;25.80;99.90
27573;DHT22;15009;53.082;8.768;2022-08-25T20:46:04;25.70;99.90
27573;DHT22;15009;53.082;8.768;2022-08-25T20:49:05;25.60;99.90